createdAt,value
2018-12-31T00:00:29.666Z,0.00
2018-12-31T00:01:29.675Z,0.00
2018-12-31T00:02:29.683Z,0.00
2018-12-31T00:03:29.695Z,0.00
2018-12-31T00:04:29.699Z,0.00
2018-12-31T00:05:29.710Z,0.00
2018-12-31T00:06:29.721Z,0.00
2018-12-31T00:07:29.727Z,0.00
2018-12-31T00:08:29.737Z,0.00
2018-12-31T00:09:29.745Z,0.00
2018-12-31T00:10:29.755Z,0.00
2018-12-31T00:11:29.766Z,0.00
2018-12-31T00:12:29.770Z,0.00
2018-12-31T00:13:29.783Z,0.00
2018-12-31T00:14:29.787Z,0.00
2018-12-31T00:15:29.797Z,0.00
2018-12-31T00:16:29.804Z,0.00
2018-12-31T00:17:29.814Z,0.00
2018-12-31T00:18:29.823Z,0.00
2018-12-31T00:19:29.832Z,0.00
2018-12-31T00:20:29.842Z,0.00
2018-12-31T00:21:29.849Z,0.00
2018-12-31T00:22:29.857Z,0.00
2018-12-31T00:23:29.922Z,0.00
2018-12-31T00:24:29.878Z,0.00
2018-12-31T00:25:29.885Z,0.00
2018-12-31T00:26:29.898Z,0.00
2018-12-31T00:27:29.911Z,0.00
2018-12-31T00:28:29.910Z,0.00
2018-12-31T00:29:29.918Z,0.00
2018-12-31T00:30:29.928Z,0.00
2018-12-31T00:31:29.935Z,0.00
2018-12-31T00:32:29.943Z,0.00
2018-12-31T00:33:29.953Z,0.00
2018-12-31T00:34:29.964Z,0.00
2018-12-31T00:35:29.970Z,0.00
2018-12-31T00:36:29.979Z,0.00
2018-12-31T00:37:29.988Z,0.00
2018-12-31T00:38:29.996Z,0.00
2018-12-31T00:39:30.005Z,0.00
2018-12-31T00:40:30.015Z,0.00
2018-12-31T00:41:30.027Z,0.00
2018-12-31T00:42:30.034Z,0.00
2018-12-31T00:43:30.060Z,0.00
2018-12-31T00:44:30.050Z,0.00
2018-12-31T00:45:30.060Z,0.00
2018-12-31T00:46:30.070Z,0.00
2018-12-31T00:47:30.075Z,0.00
2018-12-31T00:48:30.084Z,0.00
2018-12-31T00:49:30.094Z,0.00
2018-12-31T00:50:30.103Z,0.00
2018-12-31T00:51:30.111Z,0.00
2018-12-31T00:52:30.119Z,0.00
2018-12-31T00:53:30.126Z,0.00
2018-12-31T00:54:30.137Z,0.00
2018-12-31T00:55:30.145Z,0.00
2018-12-31T00:56:30.155Z,0.00
2018-12-31T00:57:30.162Z,0.00
2018-12-31T00:58:30.171Z,0.00
2018-12-31T00:59:30.185Z,0.00
2018-12-31T01:00:30.186Z,0.00
2018-12-31T01:01:30.197Z,0.00
2018-12-31T01:02:30.205Z,0.00
2018-12-31T01:03:30.211Z,0.00
2018-12-31T01:04:30.227Z,0.00
2018-12-31T01:05:30.228Z,0.00
2018-12-31T01:06:30.238Z,0.00
2018-12-31T01:07:30.256Z,0.00
2018-12-31T01:08:30.254Z,0.00
2018-12-31T01:09:30.263Z,0.00
2018-12-31T01:10:30.274Z,0.00
2018-12-31T01:11:30.284Z,0.00
2018-12-31T01:12:30.288Z,0.00
2018-12-31T01:13:30.301Z,0.00
2018-12-31T01:14:30.316Z,0.00
2018-12-31T01:15:30.317Z,0.00
2018-12-31T01:16:30.323Z,0.00
2018-12-31T01:17:30.334Z,0.00
2018-12-31T01:18:30.344Z,0.00
2018-12-31T01:19:30.353Z,0.00
2018-12-31T01:20:30.359Z,0.00
2018-12-31T01:21:30.369Z,0.00
2018-12-31T01:22:30.376Z,0.00
2018-12-31T01:23:30.386Z,0.00
2018-12-31T01:24:30.393Z,0.00
2018-12-31T01:25:30.405Z,0.00
2018-12-31T01:26:30.413Z,0.00
2018-12-31T01:27:30.420Z,0.00
2018-12-31T01:28:30.429Z,0.00
2018-12-31T01:29:30.443Z,0.00
2018-12-31T01:30:30.449Z,0.00
2018-12-31T01:31:30.455Z,0.00
2018-12-31T01:32:30.463Z,0.00
2018-12-31T01:33:30.473Z,0.00
2018-12-31T01:34:30.481Z,0.00
2018-12-31T01:35:30.493Z,0.00
2018-12-31T01:36:30.500Z,0.00
2018-12-31T01:37:30.507Z,0.00
2018-12-31T01:38:30.515Z,0.00
2018-12-31T01:39:30.527Z,0.00
2018-12-31T01:40:30.535Z,0.00
2018-12-31T01:41:30.541Z,0.00
2018-12-31T01:42:30.551Z,0.00
2018-12-31T01:43:30.559Z,0.00
2018-12-31T01:44:30.569Z,0.00
2018-12-31T01:45:30.577Z,0.00
2018-12-31T01:46:30.585Z,0.00
2018-12-31T01:47:30.598Z,0.00
2018-12-31T01:48:30.603Z,0.00
2018-12-31T01:49:30.612Z,0.00
2018-12-31T01:50:30.626Z,0.00
2018-12-31T01:51:30.629Z,0.00
2018-12-31T01:52:30.637Z,0.00
2018-12-31T01:53:30.646Z,0.00
2018-12-31T01:54:30.656Z,0.00
2018-12-31T01:55:30.668Z,0.00
2018-12-31T01:56:30.676Z,0.00
2018-12-31T01:57:30.686Z,0.00
2018-12-31T01:58:30.691Z,0.00
2018-12-31T01:59:30.703Z,0.00
2018-12-31T02:00:31.729Z,0.00
2018-12-31T02:01:30.717Z,0.00
2018-12-31T02:02:30.725Z,0.00
2018-12-31T02:03:30.739Z,0.00
2018-12-31T02:04:30.743Z,0.00
2018-12-31T02:05:30.750Z,0.00
2018-12-31T02:06:30.760Z,0.00
2018-12-31T02:07:30.770Z,0.00
2018-12-31T02:08:30.794Z,0.00
2018-12-31T02:09:30.788Z,0.00
2018-12-31T02:10:30.796Z,0.00
2018-12-31T02:11:30.804Z,0.00
2018-12-31T02:12:30.814Z,0.00
2018-12-31T02:13:30.820Z,0.00
2018-12-31T02:14:30.830Z,0.00
2018-12-31T02:15:30.839Z,0.00
2018-12-31T02:16:30.848Z,0.00
2018-12-31T02:17:30.856Z,0.00
2018-12-31T02:18:30.933Z,0.00
2018-12-31T02:19:30.875Z,0.00
2018-12-31T02:20:30.882Z,0.00
2018-12-31T02:21:30.895Z,0.00
2018-12-31T02:22:30.900Z,0.00
2018-12-31T02:23:30.909Z,0.00
2018-12-31T02:24:30.917Z,0.00
2018-12-31T02:25:30.930Z,0.00
2018-12-31T02:26:30.936Z,0.00
2018-12-31T02:27:30.943Z,0.00
2018-12-31T02:28:30.951Z,0.00
2018-12-31T02:29:30.961Z,0.00
2018-12-31T02:30:30.971Z,0.00
2018-12-31T02:31:30.989Z,0.00
2018-12-31T02:32:30.990Z,0.00
2018-12-31T02:33:30.997Z,0.00
2018-12-31T02:34:31.011Z,0.00
2018-12-31T02:35:31.017Z,0.00
2018-12-31T02:36:31.026Z,0.00
2018-12-31T02:37:31.035Z,0.00
2018-12-31T02:38:31.047Z,0.00
2018-12-31T02:39:31.054Z,0.00
2018-12-31T02:40:31.059Z,0.00
2018-12-31T02:41:31.066Z,0.00
2018-12-31T02:42:31.080Z,0.00
2018-12-31T02:43:31.084Z,0.00
2018-12-31T02:44:31.096Z,0.00
2018-12-31T02:45:31.101Z,0.00
2018-12-31T02:46:31.111Z,0.00
2018-12-31T02:47:31.121Z,0.00
2018-12-31T02:48:31.128Z,0.00
2018-12-31T02:49:31.141Z,0.00
2018-12-31T02:50:31.149Z,0.00
2018-12-31T02:51:31.157Z,0.00
2018-12-31T02:52:31.166Z,0.00
2018-12-31T02:53:31.173Z,0.00
2018-12-31T02:54:31.183Z,0.00
2018-12-31T02:55:31.193Z,0.00
2018-12-31T02:56:31.202Z,0.00
2018-12-31T02:57:31.209Z,0.00
2018-12-31T02:58:31.221Z,0.00
2018-12-31T02:59:31.229Z,0.00
2018-12-31T03:00:31.236Z,0.00
2018-12-31T03:01:31.248Z,0.00
2018-12-31T03:02:31.256Z,0.00
2018-12-31T03:03:31.264Z,0.00
2018-12-31T03:04:31.273Z,0.00
2018-12-31T03:05:31.281Z,0.00
2018-12-31T03:06:31.290Z,0.00
2018-12-31T03:07:31.299Z,0.00
2018-12-31T03:08:31.311Z,0.00
2018-12-31T03:09:31.316Z,0.00
2018-12-31T03:10:31.328Z,0.00
2018-12-31T03:11:31.337Z,0.00
2018-12-31T03:12:31.344Z,0.00
2018-12-31T03:13:31.352Z,0.00
2018-12-31T03:14:31.363Z,0.00
2018-12-31T03:15:31.374Z,0.00
2018-12-31T03:16:31.379Z,0.00
2018-12-31T03:17:31.394Z,0.00
2018-12-31T03:18:31.400Z,0.00
2018-12-31T03:19:31.407Z,0.00
2018-12-31T03:20:31.417Z,0.00
2018-12-31T03:21:31.425Z,0.00
2018-12-31T03:22:31.435Z,0.00
2018-12-31T03:23:31.445Z,0.00
2018-12-31T03:24:31.454Z,0.00
2018-12-31T03:25:31.460Z,0.00
2018-12-31T03:26:31.469Z,0.00
2018-12-31T03:27:31.490Z,0.00
2018-12-31T03:28:31.489Z,0.00
2018-12-31T03:29:31.509Z,0.00
2018-12-31T03:30:31.508Z,0.00
2018-12-31T03:31:31.516Z,0.00
2018-12-31T03:32:31.524Z,0.00
2018-12-31T03:33:31.532Z,0.00
2018-12-31T03:34:31.542Z,0.00
2018-12-31T03:35:31.554Z,0.00
2018-12-31T03:36:31.561Z,0.00
2018-12-31T03:37:31.572Z,0.00
2018-12-31T03:38:31.580Z,0.00
2018-12-31T03:39:31.587Z,0.00
2018-12-31T03:40:31.595Z,0.00
2018-12-31T03:41:31.628Z,0.00
2018-12-31T03:42:31.613Z,0.00
2018-12-31T03:43:31.622Z,0.00
2018-12-31T03:44:31.633Z,0.00
2018-12-31T03:45:31.641Z,0.00
2018-12-31T03:46:31.651Z,0.00
2018-12-31T03:47:31.660Z,0.00
2018-12-31T03:48:31.669Z,0.00
2018-12-31T03:49:31.680Z,0.00
2018-12-31T03:50:31.687Z,0.00
2018-12-31T03:51:31.699Z,0.00
2018-12-31T03:52:31.708Z,0.00
2018-12-31T03:53:31.721Z,0.00
2018-12-31T03:54:31.727Z,0.00
2018-12-31T03:55:31.731Z,0.00
2018-12-31T03:56:31.740Z,0.00
2018-12-31T03:57:31.752Z,0.00
2018-12-31T03:58:31.758Z,0.00
2018-12-31T03:59:31.768Z,0.00
2018-12-31T04:00:31.776Z,0.00
2018-12-31T04:01:31.793Z,0.00
2018-12-31T04:02:31.794Z,0.00
2018-12-31T04:03:31.802Z,0.00
2018-12-31T04:04:31.813Z,0.00
2018-12-31T04:05:31.820Z,0.00
2018-12-31T04:06:31.832Z,0.00
2018-12-31T04:07:31.840Z,0.00
2018-12-31T04:08:31.850Z,0.00
2018-12-31T04:09:31.858Z,0.00
2018-12-31T04:10:31.865Z,0.00
2018-12-31T04:11:31.875Z,0.00
2018-12-31T04:12:31.883Z,0.00
2018-12-31T04:13:31.892Z,0.00
2018-12-31T04:14:31.903Z,0.00
2018-12-31T04:15:31.913Z,0.00
2018-12-31T04:16:31.918Z,0.00
2018-12-31T04:17:31.928Z,0.00
2018-12-31T04:18:31.938Z,0.00
2018-12-31T04:19:31.950Z,0.00
2018-12-31T04:20:31.958Z,0.00
2018-12-31T04:21:31.965Z,0.00
2018-12-31T04:22:31.975Z,0.00
2018-12-31T04:23:31.982Z,0.00
2018-12-31T04:24:31.990Z,0.00
2018-12-31T04:25:31.999Z,0.00
2018-12-31T04:26:32.011Z,0.00
2018-12-31T04:27:32.020Z,0.00
2018-12-31T04:28:32.027Z,0.00
2018-12-31T04:29:32.035Z,0.00
2018-12-31T04:30:32.047Z,0.00
2018-12-31T04:31:32.057Z,0.00
2018-12-31T04:32:32.065Z,0.00
2018-12-31T04:33:32.081Z,0.00
2018-12-31T04:34:32.082Z,0.00
2018-12-31T04:35:32.089Z,0.00
2018-12-31T04:36:32.098Z,0.00
2018-12-31T04:37:32.104Z,0.00
2018-12-31T04:38:32.113Z,0.00
2018-12-31T04:39:32.124Z,0.00
2018-12-31T04:40:32.134Z,0.00
2018-12-31T04:41:32.140Z,0.00
2018-12-31T04:42:32.149Z,0.00
2018-12-31T04:43:32.160Z,0.00
2018-12-31T04:44:32.169Z,0.00
2018-12-31T04:45:32.177Z,0.00
2018-12-31T04:46:32.186Z,0.00
2018-12-31T04:47:32.197Z,0.00
2018-12-31T04:48:32.210Z,0.00
2018-12-31T04:49:32.212Z,0.00
2018-12-31T04:50:32.221Z,0.00
2018-12-31T04:51:32.232Z,0.00
2018-12-31T04:52:32.237Z,0.00
2018-12-31T04:53:32.247Z,0.00
2018-12-31T04:54:32.259Z,0.00
2018-12-31T04:55:32.266Z,0.00
2018-12-31T04:56:32.283Z,0.00
2018-12-31T04:57:32.285Z,0.00
2018-12-31T04:58:32.292Z,0.00
2018-12-31T04:59:32.302Z,0.00
2018-12-31T05:00:32.311Z,0.00
2018-12-31T05:01:32.333Z,0.00
2018-12-31T05:02:32.327Z,0.00
2018-12-31T05:03:32.337Z,0.00
2018-12-31T05:04:32.345Z,0.00
2018-12-31T05:05:32.355Z,0.00
2018-12-31T05:06:32.363Z,0.00
2018-12-31T05:07:32.375Z,0.00
2018-12-31T05:08:32.381Z,0.00
2018-12-31T05:09:32.390Z,0.00
2018-12-31T05:10:32.402Z,0.00
2018-12-31T05:11:32.411Z,0.00
2018-12-31T05:12:32.419Z,0.00
2018-12-31T05:13:32.425Z,0.00
2018-12-31T05:14:32.435Z,0.00
2018-12-31T05:15:32.444Z,0.00
2018-12-31T05:16:32.461Z,0.00
2018-12-31T05:17:32.462Z,0.00
2018-12-31T05:18:32.472Z,0.00
2018-12-31T05:19:32.483Z,0.00
2018-12-31T05:20:32.489Z,0.00
2018-12-31T05:21:32.501Z,0.00
2018-12-31T05:22:32.509Z,0.00
2018-12-31T05:23:32.518Z,0.00
2018-12-31T05:24:32.529Z,0.00
2018-12-31T05:25:32.538Z,0.00
2018-12-31T05:26:32.553Z,0.00
2018-12-31T05:27:32.555Z,0.00
2018-12-31T05:28:32.562Z,0.00
2018-12-31T05:29:32.572Z,0.00
2018-12-31T05:30:32.582Z,0.00
2018-12-31T05:31:32.592Z,0.00
2018-12-31T05:32:32.603Z,0.00
2018-12-31T05:33:32.613Z,0.00
2018-12-31T05:34:32.618Z,0.00
2018-12-31T05:35:32.628Z,0.00
2018-12-31T05:36:32.636Z,0.00
2018-12-31T05:37:32.650Z,0.00
2018-12-31T05:38:32.654Z,0.00
2018-12-31T05:39:32.668Z,0.00
2018-12-31T05:40:32.672Z,0.00
2018-12-31T05:41:32.682Z,0.00
2018-12-31T05:42:32.690Z,0.00
2018-12-31T05:43:32.702Z,0.00
2018-12-31T05:44:32.708Z,0.00
2018-12-31T05:45:32.716Z,0.00
2018-12-31T05:46:32.726Z,0.00
2018-12-31T05:47:32.747Z,0.00
2018-12-31T05:48:32.743Z,0.00
2018-12-31T05:49:32.755Z,0.00
2018-12-31T05:50:32.763Z,0.00
2018-12-31T05:51:32.771Z,0.00
2018-12-31T05:52:32.778Z,0.00
2018-12-31T05:53:32.790Z,0.00
2018-12-31T05:54:32.800Z,0.00
2018-12-31T05:55:32.807Z,0.00
2018-12-31T05:56:32.814Z,0.00
2018-12-31T05:57:32.828Z,0.00
2018-12-31T05:58:32.835Z,0.00
2018-12-31T05:59:32.842Z,0.00
2018-12-31T06:00:32.848Z,0.00
2018-12-31T06:01:32.859Z,0.00
2018-12-31T06:02:32.903Z,0.00
2018-12-31T06:03:32.882Z,0.00
2018-12-31T06:04:32.885Z,0.00
2018-12-31T06:05:32.894Z,0.00
2018-12-31T06:06:32.907Z,0.00
2018-12-31T06:07:32.912Z,0.00
2018-12-31T06:08:32.921Z,0.00
2018-12-31T06:09:32.933Z,0.00
2018-12-31T06:10:32.946Z,0.00
2018-12-31T06:11:32.948Z,0.00
2018-12-31T06:12:32.959Z,0.00
2018-12-31T06:13:32.965Z,0.00
2018-12-31T06:14:32.973Z,0.00
2018-12-31T06:15:32.984Z,0.00
2018-12-31T06:16:32.992Z,0.00
2018-12-31T06:17:33.000Z,0.00
2018-12-31T06:18:33.014Z,0.00
2018-12-31T06:19:33.069Z,0.00
2018-12-31T06:20:33.030Z,0.00
2018-12-31T06:21:33.039Z,0.00
2018-12-31T06:22:33.089Z,0.00
2018-12-31T06:23:33.055Z,0.00
2018-12-31T06:24:33.062Z,0.00
2018-12-31T06:25:33.071Z,0.00
2018-12-31T06:26:33.201Z,0.00
2018-12-31T06:27:33.089Z,0.00
2018-12-31T06:28:33.098Z,0.00
2018-12-31T06:29:33.106Z,0.00
2018-12-31T06:30:33.113Z,0.00
2018-12-31T06:31:33.122Z,0.00
2018-12-31T06:32:33.129Z,0.00
2018-12-31T06:33:33.141Z,0.00
2018-12-31T06:34:33.153Z,0.00
2018-12-31T06:35:33.208Z,0.00
2018-12-31T06:36:33.164Z,0.00
2018-12-31T06:37:33.175Z,0.00
2018-12-31T06:38:33.182Z,0.00
2018-12-31T06:39:33.191Z,0.00
2018-12-31T06:40:33.199Z,0.00
2018-12-31T06:41:33.207Z,0.00
2018-12-31T06:42:33.225Z,0.00
2018-12-31T06:43:33.226Z,0.00
2018-12-31T06:44:33.232Z,0.00
2018-12-31T06:45:33.242Z,0.00
2018-12-31T06:46:33.250Z,0.00
2018-12-31T06:47:33.258Z,0.00
2018-12-31T06:48:33.271Z,0.00
2018-12-31T06:49:33.278Z,0.00
2018-12-31T06:50:33.285Z,0.00
2018-12-31T06:51:33.294Z,0.00
2018-12-31T06:52:33.300Z,0.00
2018-12-31T06:53:33.310Z,0.00
2018-12-31T06:54:33.320Z,0.00
2018-12-31T06:55:33.329Z,0.00
2018-12-31T06:56:33.340Z,0.00
2018-12-31T06:57:33.343Z,0.00
2018-12-31T06:58:33.354Z,0.00
2018-12-31T06:59:33.366Z,0.00
2018-12-31T07:00:33.373Z,0.00
2018-12-31T07:01:33.382Z,0.00
2018-12-31T07:02:33.389Z,0.00
2018-12-31T07:03:33.399Z,0.00
2018-12-31T07:04:33.407Z,0.00
2018-12-31T07:05:33.415Z,0.00
2018-12-31T07:06:33.428Z,0.00
2018-12-31T07:07:33.431Z,0.00
2018-12-31T07:08:33.440Z,0.00
2018-12-31T07:09:33.447Z,0.00
2018-12-31T07:10:33.460Z,0.00
2018-12-31T07:11:33.469Z,0.00
2018-12-31T07:12:33.477Z,0.00
2018-12-31T07:13:33.491Z,0.00
2018-12-31T07:14:33.493Z,0.00
2018-12-31T07:15:33.506Z,0.00
2018-12-31T07:16:33.510Z,0.00
2018-12-31T07:17:33.519Z,0.00
2018-12-31T07:18:33.529Z,0.00
2018-12-31T07:19:33.539Z,0.00
2018-12-31T07:20:33.546Z,0.00
2018-12-31T07:21:33.557Z,0.00
2018-12-31T07:22:33.566Z,0.00
2018-12-31T07:23:33.575Z,0.00
2018-12-31T07:24:33.583Z,0.00
2018-12-31T07:25:33.591Z,0.00
2018-12-31T07:26:33.599Z,0.00
2018-12-31T07:27:33.610Z,0.00
2018-12-31T07:28:33.619Z,0.00
2018-12-31T07:29:33.627Z,0.00
2018-12-31T07:30:33.636Z,0.00
2018-12-31T07:31:33.645Z,0.00
2018-12-31T07:32:33.654Z,0.00
2018-12-31T07:33:33.660Z,0.00
2018-12-31T07:34:33.670Z,0.00
2018-12-31T07:35:33.680Z,0.00
2018-12-31T07:36:33.685Z,0.00
2018-12-31T07:37:33.695Z,0.00
2018-12-31T07:38:33.703Z,0.00
2018-12-31T07:39:33.717Z,0.00
2018-12-31T07:40:33.722Z,0.00
2018-12-31T07:41:33.779Z,0.00
2018-12-31T07:42:33.738Z,0.00
2018-12-31T07:43:33.775Z,0.00
2018-12-31T07:44:33.754Z,0.00
2018-12-31T07:45:33.761Z,0.00
2018-12-31T07:46:33.771Z,0.00
2018-12-31T07:47:33.836Z,0.00
2018-12-31T07:48:33.813Z,0.00
2018-12-31T07:49:33.797Z,0.00
2018-12-31T07:50:33.805Z,5.63
2018-12-31T07:51:33.815Z,5.63
2018-12-31T07:52:33.822Z,5.63
2018-12-31T07:53:33.835Z,5.63
2018-12-31T07:54:33.836Z,5.63
2018-12-31T07:55:33.846Z,5.63
2018-12-31T07:56:33.854Z,5.63
2018-12-31T07:57:33.864Z,5.63
2018-12-31T07:58:33.872Z,5.63
2018-12-31T07:59:33.939Z,5.63
2018-12-31T08:00:33.920Z,5.63
2018-12-31T08:01:33.898Z,5.63
2018-12-31T08:02:33.906Z,5.63
2018-12-31T08:03:33.915Z,5.63
2018-12-31T08:04:33.988Z,5.63
2018-12-31T08:05:33.932Z,5.63
2018-12-31T08:06:33.943Z,5.63
2018-12-31T08:07:33.952Z,5.63
2018-12-31T08:08:33.959Z,5.63
2018-12-31T08:09:33.968Z,5.63
2018-12-31T08:10:33.977Z,5.63
2018-12-31T08:11:33.991Z,5.63
2018-12-31T08:12:33.995Z,5.63
2018-12-31T08:13:34.002Z,5.63
2018-12-31T08:14:34.012Z,5.63
2018-12-31T08:15:34.021Z,5.63
2018-12-31T08:16:34.033Z,11.25
2018-12-31T08:17:34.078Z,11.25
2018-12-31T08:18:34.047Z,11.25
2018-12-31T08:19:34.060Z,11.25
2018-12-31T08:20:34.066Z,11.25
2018-12-31T08:21:34.076Z,11.25
2018-12-31T08:22:34.082Z,11.25
2018-12-31T08:23:34.092Z,11.25
2018-12-31T08:24:34.101Z,11.25
2018-12-31T08:25:34.152Z,11.25
2018-12-31T08:26:34.119Z,11.25
2018-12-31T08:27:34.129Z,11.25
2018-12-31T08:28:34.137Z,11.25
2018-12-31T08:29:34.148Z,11.25
2018-12-31T08:30:34.160Z,11.25
2018-12-31T08:31:34.166Z,11.25
2018-12-31T08:32:34.177Z,11.25
2018-12-31T08:33:34.185Z,11.25
2018-12-31T08:34:34.193Z,11.25
2018-12-31T08:35:34.204Z,11.25
2018-12-31T08:36:34.211Z,16.88
2018-12-31T08:37:34.221Z,16.88
2018-12-31T08:38:34.231Z,16.88
2018-12-31T08:39:34.242Z,16.88
2018-12-31T08:40:34.251Z,16.88
2018-12-31T08:41:34.262Z,16.88
2018-12-31T08:42:34.271Z,16.88
2018-12-31T08:43:34.280Z,16.88
2018-12-31T08:44:34.292Z,16.88
2018-12-31T08:45:34.297Z,16.88
2018-12-31T08:46:34.309Z,16.88
2018-12-31T08:47:34.319Z,16.88
2018-12-31T08:48:34.328Z,11.25
2018-12-31T08:49:34.337Z,11.25
2018-12-31T08:50:34.345Z,28.13
2018-12-31T08:51:34.355Z,22.50
2018-12-31T08:52:34.367Z,16.88
2018-12-31T08:53:34.376Z,28.13
2018-12-31T08:54:34.386Z,22.50
2018-12-31T08:55:34.396Z,16.88
2018-12-31T08:56:34.408Z,22.50
2018-12-31T08:57:34.421Z,22.50
2018-12-31T08:58:34.428Z,16.88
2018-12-31T08:59:34.436Z,22.50
2018-12-31T09:00:34.447Z,33.75
2018-12-31T09:01:34.454Z,22.50
2018-12-31T09:02:34.475Z,33.75
2018-12-31T09:03:34.478Z,28.13
2018-12-31T09:04:34.485Z,22.50
2018-12-31T09:05:34.498Z,33.75
2018-12-31T09:06:34.510Z,28.13
2018-12-31T09:07:34.522Z,11.25
2018-12-31T09:08:34.841Z,16.88
2018-12-31T09:09:34.539Z,22.50
2018-12-31T09:10:34.550Z,28.13
2018-12-31T09:11:34.562Z,28.13
2018-12-31T09:12:34.572Z,28.13
2018-12-31T09:13:34.582Z,28.13
2018-12-31T09:14:34.595Z,33.75
2018-12-31T09:15:34.604Z,33.75
2018-12-31T09:16:34.614Z,28.13
2018-12-31T09:17:34.625Z,28.13
2018-12-31T09:18:34.637Z,28.13
2018-12-31T09:19:34.648Z,28.13
2018-12-31T09:20:34.659Z,33.75
2018-12-31T09:21:34.667Z,33.75
2018-12-31T09:22:34.683Z,33.75
2018-12-31T09:23:34.690Z,28.13
2018-12-31T09:24:34.700Z,33.75
2018-12-31T09:25:34.710Z,33.75
2018-12-31T09:26:34.721Z,33.75
2018-12-31T09:27:34.737Z,33.75
2018-12-31T09:28:34.744Z,33.75
2018-12-31T09:29:34.754Z,33.75
2018-12-31T09:30:34.766Z,28.13
2018-12-31T09:31:34.780Z,28.13
2018-12-31T09:32:34.788Z,33.75
2018-12-31T09:33:34.798Z,33.75
2018-12-31T09:34:34.811Z,33.75
2018-12-31T09:35:34.822Z,28.13
2018-12-31T09:36:36.570Z,28.13
2018-12-31T09:37:34.844Z,33.75
2018-12-31T09:38:34.857Z,33.75
2018-12-31T09:39:34.905Z,33.75
2018-12-31T09:40:34.883Z,33.75
2018-12-31T09:41:34.893Z,39.38
2018-12-31T09:42:34.903Z,28.13
2018-12-31T09:43:34.915Z,39.38
2018-12-31T09:44:34.924Z,39.38
2018-12-31T09:45:34.938Z,39.38
2018-12-31T09:46:34.948Z,39.38
2018-12-31T09:47:34.962Z,39.38
2018-12-31T09:48:34.971Z,39.38
2018-12-31T09:49:34.982Z,39.38
2018-12-31T09:50:34.997Z,45.00
2018-12-31T09:51:35.011Z,45.00
2018-12-31T09:52:35.025Z,45.00
2018-12-31T09:53:35.034Z,50.63
2018-12-31T09:54:35.043Z,50.63
2018-12-31T09:55:35.056Z,50.63
2018-12-31T09:56:35.068Z,50.63
2018-12-31T09:57:35.081Z,50.63
2018-12-31T09:58:36.412Z,56.25
2018-12-31T09:59:35.105Z,56.25
2018-12-31T10:00:35.118Z,56.25
2018-12-31T10:01:35.128Z,56.25
2018-12-31T10:02:35.141Z,56.25
2018-12-31T10:03:35.154Z,56.25
2018-12-31T10:04:35.165Z,56.25
2018-12-31T10:05:35.176Z,61.88
2018-12-31T10:06:35.189Z,61.88
2018-12-31T10:07:35.205Z,61.88
2018-12-31T10:08:35.216Z,61.88
2018-12-31T10:09:35.228Z,50.63
2018-12-31T10:10:35.242Z,61.88
2018-12-31T10:11:35.253Z,61.88
2018-12-31T10:12:35.263Z,67.50
2018-12-31T10:13:35.278Z,67.50
2018-12-31T10:14:35.291Z,67.50
2018-12-31T10:15:35.307Z,67.50
2018-12-31T10:16:35.318Z,28.13
2018-12-31T10:17:35.334Z,67.50
2018-12-31T10:18:35.344Z,67.50
2018-12-31T10:19:35.359Z,67.50
2018-12-31T10:20:35.371Z,67.50
2018-12-31T10:21:41.005Z,50.63
2018-12-31T10:22:35.396Z,67.50
2018-12-31T10:23:35.416Z,67.50
2018-12-31T10:24:35.425Z,67.50
2018-12-31T10:25:35.439Z,67.50
2018-12-31T10:26:35.449Z,22.50
2018-12-31T10:27:35.465Z,67.50
2018-12-31T10:28:35.478Z,67.50
2018-12-31T10:29:36.265Z,67.50
2018-12-31T10:30:35.508Z,67.50
2018-12-31T10:31:35.520Z,67.50
2018-12-31T10:32:35.532Z,67.50
2018-12-31T10:33:35.546Z,67.50
2018-12-31T10:34:35.563Z,56.25
2018-12-31T10:35:35.646Z,67.50
2018-12-31T10:36:35.589Z,67.50
2018-12-31T10:37:35.603Z,67.50
2018-12-31T10:38:35.617Z,67.50
2018-12-31T10:39:35.631Z,67.50
2018-12-31T10:40:35.646Z,73.13
2018-12-31T10:41:35.658Z,73.13
2018-12-31T10:42:35.674Z,67.50
2018-12-31T10:43:35.694Z,28.13
2018-12-31T10:44:35.704Z,73.13
2018-12-31T10:45:35.720Z,73.13
2018-12-31T10:46:35.812Z,73.13
2018-12-31T10:47:35.748Z,73.13
2018-12-31T10:48:35.762Z,73.13
2018-12-31T10:49:35.776Z,73.13
2018-12-31T10:50:35.794Z,56.25
2018-12-31T10:51:35.809Z,39.38
2018-12-31T10:52:35.819Z,73.13
2018-12-31T10:53:35.836Z,67.50
2018-12-31T10:54:35.851Z,67.50
2018-12-31T10:55:35.867Z,67.50
2018-12-31T10:56:35.879Z,67.50
2018-12-31T10:57:35.899Z,61.88
2018-12-31T10:58:35.912Z,61.88
2018-12-31T10:59:35.925Z,67.50
2018-12-31T11:00:35.939Z,67.50
2018-12-31T11:01:35.959Z,61.88
2018-12-31T11:02:35.972Z,45.00
2018-12-31T11:03:35.988Z,61.88
2018-12-31T11:04:36.004Z,61.88
2018-12-31T11:05:36.019Z,61.88
2018-12-31T11:06:36.034Z,61.88
2018-12-31T11:07:36.053Z,61.88
2018-12-31T11:08:36.067Z,61.88
2018-12-31T11:09:36.076Z,61.88
2018-12-31T11:10:36.092Z,61.88
2018-12-31T11:11:36.110Z,61.88
2018-12-31T11:12:36.124Z,61.88
2018-12-31T11:13:36.140Z,61.88
2018-12-31T11:14:36.156Z,61.88
2018-12-31T11:15:36.171Z,61.88
2018-12-31T11:16:36.185Z,61.88
2018-12-31T11:17:36.203Z,61.88
2018-12-31T11:18:36.216Z,61.88
2018-12-31T11:19:36.235Z,61.88
2018-12-31T11:20:36.249Z,61.88
2018-12-31T11:21:36.263Z,61.88
2018-12-31T11:22:36.279Z,61.88
2018-12-31T11:23:36.295Z,61.88
2018-12-31T11:24:36.312Z,61.88
2018-12-31T11:25:37.754Z,61.88
2018-12-31T11:26:36.343Z,61.88
2018-12-31T11:27:36.357Z,61.88
2018-12-31T11:28:36.371Z,61.88
2018-12-31T11:29:36.388Z,61.88
2018-12-31T11:30:36.401Z,67.50
2018-12-31T11:31:36.420Z,67.50
2018-12-31T11:32:36.436Z,67.50
2018-12-31T11:33:36.453Z,67.50
2018-12-31T11:34:36.467Z,67.50
2018-12-31T11:35:36.483Z,67.50
2018-12-31T11:36:36.501Z,67.50
2018-12-31T11:37:36.513Z,67.50
2018-12-31T11:38:36.529Z,67.50
2018-12-31T11:39:36.549Z,67.50
2018-12-31T11:40:36.563Z,67.50
2018-12-31T11:41:36.588Z,67.50
2018-12-31T11:42:36.595Z,61.88
2018-12-31T11:43:36.610Z,67.50
2018-12-31T11:44:36.623Z,61.88
2018-12-31T11:45:36.642Z,67.50
2018-12-31T11:46:36.656Z,67.50
2018-12-31T11:47:36.675Z,67.50
2018-12-31T11:48:36.689Z,67.50
2018-12-31T11:49:36.707Z,67.50
2018-12-31T11:50:36.720Z,67.50
2018-12-31T11:51:36.802Z,67.50
2018-12-31T11:52:36.755Z,67.50
2018-12-31T11:53:36.770Z,67.50
2018-12-31T11:54:36.787Z,67.50
2018-12-31T11:55:36.808Z,73.13
2018-12-31T11:56:36.819Z,67.50
2018-12-31T11:57:36.835Z,56.25
2018-12-31T11:58:36.850Z,50.63
2018-12-31T11:59:36.868Z,67.50
2018-12-31T12:00:36.885Z,67.50
2018-12-31T12:01:36.900Z,67.50
2018-12-31T12:02:36.916Z,67.50
2018-12-31T12:03:36.938Z,78.75
2018-12-31T12:04:36.948Z,50.63
2018-12-31T12:05:36.968Z,50.63
2018-12-31T12:06:36.984Z,67.50
2018-12-31T12:07:36.999Z,73.13
2018-12-31T12:08:37.015Z,67.50
2018-12-31T12:09:37.035Z,73.13
2018-12-31T12:10:37.053Z,61.88
2018-12-31T12:11:37.066Z,73.13
2018-12-31T12:12:37.084Z,61.88
2018-12-31T12:13:37.100Z,33.75
2018-12-31T12:14:37.117Z,28.13
2018-12-31T12:15:37.133Z,50.63
2018-12-31T12:16:37.153Z,78.75
2018-12-31T12:17:37.167Z,50.63
2018-12-31T12:18:37.180Z,33.75
2018-12-31T12:19:37.201Z,45.00
2018-12-31T12:20:37.213Z,33.75
2018-12-31T12:21:37.230Z,73.13
2018-12-31T12:22:37.248Z,22.50
2018-12-31T12:23:37.263Z,22.50
2018-12-31T12:24:37.279Z,22.50
2018-12-31T12:25:37.297Z,22.50
2018-12-31T12:26:37.313Z,22.50
2018-12-31T12:27:37.328Z,22.50
2018-12-31T12:28:37.345Z,22.50
2018-12-31T12:29:37.358Z,22.50
2018-12-31T12:30:37.374Z,16.88
2018-12-31T12:31:37.393Z,16.88
2018-12-31T12:32:37.404Z,16.88
2018-12-31T12:33:38.432Z,16.88
2018-12-31T12:34:37.438Z,16.88
2018-12-31T12:35:37.453Z,16.88
2018-12-31T12:36:37.469Z,11.25
2018-12-31T12:37:37.484Z,11.25
2018-12-31T12:38:37.499Z,16.88
2018-12-31T12:39:37.514Z,16.88
2018-12-31T12:40:37.531Z,11.25
2018-12-31T12:41:37.546Z,16.88
2018-12-31T12:42:37.559Z,16.88
2018-12-31T12:43:37.575Z,16.88
2018-12-31T12:44:37.593Z,16.88
2018-12-31T12:45:37.604Z,16.88
2018-12-31T12:46:37.619Z,16.88
2018-12-31T12:47:37.634Z,16.88
2018-12-31T12:48:37.651Z,16.88
2018-12-31T12:49:37.664Z,16.88
2018-12-31T12:50:37.680Z,16.88
2018-12-31T12:51:37.692Z,16.88
2018-12-31T12:52:37.706Z,11.25
2018-12-31T12:53:37.721Z,22.50
2018-12-31T12:54:37.744Z,73.13
2018-12-31T12:55:37.751Z,78.75
2018-12-31T12:56:37.764Z,50.63
2018-12-31T12:57:37.781Z,28.13
2018-12-31T12:58:37.796Z,33.75
2018-12-31T12:59:37.828Z,39.38
2018-12-31T13:00:37.823Z,16.88
2018-12-31T13:01:37.838Z,16.88
2018-12-31T13:02:37.854Z,16.88
2018-12-31T13:03:37.867Z,16.88
2018-12-31T13:04:37.881Z,16.88
2018-12-31T13:05:37.897Z,16.88
2018-12-31T13:06:37.912Z,16.88
2018-12-31T13:07:37.927Z,11.25
2018-12-31T13:08:37.942Z,22.50